createdAt,value
2019-05-25T00:02:59.889Z,20.10
2019-05-25T00:08:01.985Z,20.13
2019-05-25T00:13:04.046Z,20.13
2019-05-25T00:18:06.177Z,20.12
2019-05-25T00:23:09.135Z,20.12
2019-05-25T00:28:11.194Z,20.09
2019-05-25T00:33:13.231Z,20.09
2019-05-25T00:38:15.293Z,20.07
2019-05-25T00:43:17.437Z,20.06
2019-05-25T00:48:19.471Z,20.07
2019-05-25T00:53:21.566Z,20.04
2019-05-25T00:58:23.611Z,20.05
2019-05-25T01:03:25.653Z,20.03
2019-05-25T01:08:27.724Z,20.01
2019-05-25T01:13:29.781Z,19.96
2019-05-25T01:18:31.828Z,19.94
2019-05-25T01:23:33.929Z,19.96
2019-05-25T01:28:37.879Z,19.89
2019-05-25T01:33:39.929Z,19.80
2019-05-25T01:38:41.980Z,19.75
2019-05-25T01:43:44.038Z,19.73
2019-05-25T01:48:46.114Z,19.72
2019-05-25T01:53:48.219Z,19.66
2019-05-25T01:58:50.247Z,19.59
2019-05-25T02:03:52.344Z,19.50
2019-05-25T02:08:54.455Z,19.36
2019-05-25T02:13:56.636Z,19.26
2019-05-25T02:18:58.744Z,19.17
2019-05-25T02:24:01.627Z,19.10
2019-05-25T02:29:03.857Z,19.01
2019-05-25T02:34:05.934Z,18.91
2019-05-25T02:39:08.004Z,18.86
2019-05-25T02:44:10.088Z,18.83
2019-05-25T02:49:12.154Z,18.79
2019-05-25T02:54:14.325Z,18.69
2019-05-25T02:59:16.394Z,18.61
2019-05-25T03:04:19.385Z,18.43
2019-05-25T03:09:22.476Z,18.36
2019-05-25T03:14:24.530Z,18.27
2019-05-25T03:19:26.680Z,18.18
2019-05-25T03:24:28.721Z,18.10
2019-05-25T03:29:30.827Z,17.97
2019-05-25T03:34:32.882Z,17.89
2019-05-25T03:39:35.081Z,17.83
2019-05-25T03:44:37.158Z,17.89
2019-05-25T03:49:39.222Z,17.82
2019-05-25T03:54:41.375Z,17.72
2019-05-25T03:59:43.473Z,17.74
2019-05-25T04:04:45.614Z,17.69
2019-05-25T04:09:47.685Z,17.66
2019-05-25T04:14:49.757Z,17.58
2019-05-25T04:19:51.795Z,17.53
2019-05-25T04:24:53.831Z,17.46
2019-05-25T04:29:55.910Z,17.53
2019-05-25T04:34:57.937Z,17.49
2019-05-25T04:39:59.966Z,17.29
2019-05-25T04:45:04.495Z,17.29
2019-05-25T04:50:07.755Z,17.32
2019-05-25T04:55:10.444Z,17.39
2019-05-25T05:00:12.851Z,17.73
2019-05-25T05:05:15.302Z,17.91
2019-05-25T05:10:19.496Z,17.93
2019-05-25T05:15:23.294Z,18.02
2019-05-25T05:20:25.335Z,19.51
2019-05-25T05:25:27.453Z,20.72
2019-05-25T05:30:33.655Z,19.87
2019-05-25T05:35:39.085Z,19.80
2019-05-25T05:40:43.326Z,19.92
2019-05-25T05:45:47.813Z,19.69
2019-05-25T05:50:51.945Z,19.89
2019-05-25T05:55:54.127Z,19.55
2019-05-25T06:00:56.216Z,19.63
2019-05-25T06:05:58.448Z,19.56
2019-05-25T06:11:00.483Z,19.33
2019-05-25T06:16:02.721Z,20.03
2019-05-25T06:21:04.958Z,22.27
2019-05-25T06:26:07.037Z,23.45
2019-05-25T06:31:09.056Z,24.16
2019-05-25T06:36:11.166Z,24.13
2019-05-25T06:41:13.230Z,24.96
2019-05-25T06:46:15.328Z,25.12
2019-05-25T06:51:17.498Z,24.91
2019-05-25T06:56:19.536Z,23.98
2019-05-25T07:01:21.614Z,23.76
2019-05-25T07:06:23.806Z,23.48
2019-05-25T07:11:25.858Z,23.63
2019-05-25T07:16:27.895Z,24.06
2019-05-25T07:21:29.962Z,23.74
2019-05-25T07:26:32.197Z,23.58
2019-05-25T07:31:34.860Z,23.47
2019-05-25T07:36:37.032Z,23.16
2019-05-25T07:41:39.245Z,22.71
2019-05-25T07:46:43.310Z,22.44
2019-05-25T07:51:45.380Z,22.13
2019-05-25T07:56:47.827Z,21.89
2019-05-25T08:01:50.042Z,21.90
2019-05-25T08:06:52.057Z,21.64
2019-05-25T08:11:54.222Z,21.42
2019-05-25T08:16:56.261Z,21.46
2019-05-25T08:21:58.388Z,21.50
2019-05-25T08:27:00.542Z,21.67
2019-05-25T08:32:02.638Z,21.45
2019-05-25T08:37:04.756Z,21.47
2019-05-25T08:42:06.911Z,21.35
2019-05-25T08:47:08.982Z,21.54
2019-05-25T08:52:11.097Z,21.40
2019-05-25T08:57:17.833Z,21.74
2019-05-25T09:02:17.266Z,21.91
2019-05-25T09:07:19.331Z,21.59
2019-05-25T09:12:21.375Z,21.45
2019-05-25T09:17:23.498Z,21.61
2019-05-25T09:22:25.546Z,21.74
2019-05-25T09:27:27.622Z,21.94
2019-05-25T09:32:29.792Z,22.00
2019-05-25T09:37:37.251Z,21.93
2019-05-25T09:42:40.075Z,22.03
2019-05-25T09:47:42.451Z,22.31
2019-05-25T09:52:44.554Z,22.12
2019-05-25T09:57:49.445Z,22.26
2019-05-25T10:02:51.863Z,22.50
2019-05-25T10:07:54.144Z,22.39
2019-05-25T10:12:56.465Z,22.20
2019-05-25T10:17:58.582Z,22.13
2019-05-25T10:23:00.842Z,22.32
2019-05-25T10:28:03.063Z,22.43
2019-05-25T10:33:05.117Z,22.61
2019-05-25T10:38:07.214Z,22.79
2019-05-25T10:43:09.373Z,23.05
2019-05-25T10:48:11.422Z,23.06
2019-05-25T10:53:13.524Z,22.98
2019-05-25T10:58:15.626Z,23.00
2019-05-25T11:03:19.515Z,23.10
2019-05-25T11:08:21.641Z,23.21
2019-05-25T11:13:23.728Z,23.28
2019-05-25T11:18:27.424Z,22.99
2019-05-25T11:23:29.624Z,22.78
2019-05-25T11:28:32.177Z,22.54
2019-05-25T11:33:36.396Z,22.29
2019-05-25T11:38:38.336Z,22.43
2019-05-25T11:43:40.403Z,22.43
2019-05-25T11:48:42.963Z,22.60
2019-05-25T11:53:45.200Z,23.06
2019-05-25T11:58:47.989Z,23.46
2019-05-25T12:03:50.376Z,23.55
2019-05-25T12:08:52.439Z,23.70
2019-05-25T12:13:56.906Z,23.42
2019-05-25T12:18:59.199Z,23.27
2019-05-25T12:24:01.283Z,23.02
2019-05-25T12:29:03.522Z,23.00
2019-05-25T12:34:05.566Z,22.86
2019-05-25T12:39:07.926Z,22.94
2019-05-25T12:44:09.955Z,22.96
2019-05-25T12:49:12.092Z,22.73
2019-05-25T12:54:14.178Z,22.70
2019-05-25T12:59:18.600Z,22.60
2019-05-25T13:04:20.634Z,22.71
2019-05-25T13:09:22.694Z,22.74
2019-05-25T13:14:25.137Z,22.59
2019-05-25T13:19:27.234Z,22.66
2019-05-25T13:24:29.396Z,22.73
2019-05-25T13:29:31.591Z,22.60
2019-05-25T13:34:33.662Z,22.58
2019-05-25T13:39:35.763Z,22.51
2019-05-25T13:44:37.924Z,22.57
2019-05-25T13:49:40.000Z,22.62
2019-05-25T13:54:42.236Z,22.65
2019-05-25T13:59:44.428Z,22.60
2019-05-25T14:04:46.812Z,22.55
2019-05-25T14:09:48.936Z,22.55
2019-05-25T14:14:50.970Z,22.60
2019-05-25T14:19:53.142Z,22.36
2019-05-25T14:24:55.275Z,22.43
2019-05-25T14:29:57.261Z,22.40
2019-05-25T14:34:59.285Z,22.28
2019-05-25T14:40:01.417Z,22.18
2019-05-25T14:45:04.537Z,22.12
2019-05-25T14:50:07.475Z,22.09
2019-05-25T14:55:10.329Z,21.93
2019-05-25T15:00:13.583Z,21.95
2019-05-25T15:05:15.652Z,21.87
2019-05-25T15:10:17.898Z,21.89
2019-05-25T15:15:20.061Z,21.75
2019-05-25T15:20:22.149Z,21.66
2019-05-25T15:25:24.182Z,21.48
2019-05-25T15:30:26.333Z,21.41
2019-05-25T15:35:28.612Z,21.42
2019-05-25T15:40:30.707Z,21.32
2019-05-25T15:45:32.859Z,21.24
2019-05-25T15:50:35.065Z,21.22
2019-05-25T15:55:37.137Z,21.15
2019-05-25T16:00:46.909Z,21.05
2019-05-25T16:05:49.185Z,20.98
2019-05-25T16:10:51.145Z,20.89
2019-05-25T16:15:53.215Z,20.82
2019-05-25T16:20:55.412Z,20.79
2019-05-25T16:25:57.466Z,20.68
2019-05-25T16:30:59.547Z,20.65
2019-05-25T16:36:03.554Z,20.64
2019-05-25T16:41:05.607Z,20.67
2019-05-25T16:46:07.685Z,20.60
2019-05-25T16:51:09.773Z,20.54
2019-05-25T16:56:13.534Z,20.54
2019-05-25T17:01:18.017Z,20.48
2019-05-25T17:06:20.845Z,20.35
2019-05-25T17:11:22.915Z,20.36
2019-05-25T17:16:24.874Z,20.29
2019-05-25T17:21:26.961Z,20.25
2019-05-25T17:26:29.109Z,20.23
2019-05-25T17:31:31.173Z,20.18
2019-05-25T17:36:33.221Z,20.13
2019-05-25T17:41:35.407Z,20.05
2019-05-25T17:46:39.460Z,19.98
2019-05-25T17:51:44.321Z,19.88
2019-05-25T17:56:48.827Z,19.74
2019-05-25T18:01:50.989Z,19.71
2019-05-25T18:06:54.527Z,19.67
2019-05-25T18:11:56.583Z,19.62
2019-05-25T18:16:58.746Z,19.53
2019-05-25T18:22:09.902Z,19.45
2019-05-25T18:27:14.757Z,19.40
2019-05-25T18:32:18.026Z,19.33
2019-05-25T18:37:20.081Z,19.20
2019-05-25T18:42:22.222Z,19.17
2019-05-25T18:47:24.357Z,19.05
2019-05-25T18:52:28.852Z,18.88
2019-05-25T18:57:35.796Z,18.74
2019-05-25T19:02:38.080Z,18.62
2019-05-25T19:07:40.309Z,18.46
2019-05-25T19:12:44.772Z,18.36
2019-05-25T19:17:46.894Z,18.30
2019-05-25T19:22:49.115Z,18.20
2019-05-25T19:27:51.430Z,18.06
2019-05-25T19:32:53.523Z,17.93
2019-05-25T19:37:55.633Z,17.88
2019-05-25T19:42:57.776Z,17.84
2019-05-25T19:48:00.983Z,17.81
2019-05-25T19:53:03.359Z,17.72
2019-05-25T19:58:05.481Z,17.60
2019-05-25T20:03:07.617Z,17.61
2019-05-25T20:08:09.734Z,17.60
2019-05-25T20:13:11.847Z,17.60
2019-05-25T20:18:13.983Z,17.48
2019-05-25T20:23:16.074Z,17.41
2019-05-25T20:28:19.489Z,17.33
2019-05-25T20:33:27.726Z,17.29
2019-05-25T20:38:25.867Z,17.28
2019-05-25T20:43:27.914Z,17.21
2019-05-25T20:48:29.963Z,17.13
2019-05-25T20:53:32.130Z,17.04
2019-05-25T20:58:35.809Z,17.01
2019-05-25T21:03:37.906Z,16.97
2019-05-25T21:08:40.005Z,16.93
2019-05-25T21:13:42.232Z,16.86
2019-05-25T21:18:44.374Z,16.85
2019-05-25T21:23:46.524Z,16.81
2019-05-25T21:28:49.741Z,16.83
2019-05-25T21:33:51.763Z,16.92
2019-05-25T21:38:53.857Z,17.01
2019-05-25T21:43:55.875Z,17.09
2019-05-25T21:48:58.138Z,17.17
2019-05-25T21:54:00.155Z,17.24
2019-05-25T21:59:02.233Z,17.25
2019-05-25T22:04:04.280Z,17.31
2019-05-25T22:09:07.478Z,17.31
2019-05-25T22:14:09.540Z,17.34
2019-05-25T22:19:11.637Z,17.33
2019-05-25T22:24:13.713Z,17.33
2019-05-25T22:29:15.815Z,17.30
2019-05-25T22:34:17.880Z,17.25
2019-05-25T22:39:20.026Z,17.16
2019-05-25T22:44:21.970Z,17.09
2019-05-25T22:49:24.040Z,17.07
2019-05-25T22:54:26.141Z,16.99
2019-05-25T22:59:28.182Z,16.91
2019-05-25T23:04:30.370Z,16.84
2019-05-25T23:09:32.433Z,16.77
2019-05-25T23:14:34.526Z,16.69
2019-05-25T23:19:36.609Z,16.66
2019-05-25T23:24:38.659Z,16.60
2019-05-25T23:29:40.720Z,16.54
2019-05-25T23:34:42.752Z,16.51
2019-05-25T23:39:44.789Z,16.46
2019-05-25T23:44:48.056Z,16.39
2019-05-25T23:49:50.097Z,16.35
2019-05-25T23:54:52.224Z,16.29
2019-05-25T23:59:54.275Z,16.22
